Mechanicsville, Iowa
Current Conditions -  °F | °C
As of 2:52 AM on Friday 31 Oct 2014 (Local Time) from KCID Reporting Station
Overcast Overcast  
Wind Chill: 32°   Ceiling: 4400
Heat Index: 41°   Visibility: 10mi
Dew Point: 27°   Wind: 17mph
Humidity: 57%   Direction: 330°NNW
Pressure: 30.21"   Gusts: 26mph
Location:  41.9°N, 91.25°W
Report Text: KCID 310752Z AUTO 33015G23KT 10SM FEW035 OVC044 05/M03 A3021 RMK AO2 PK WND 33027/0704 SLP232 T00501028
Loading
Personal Weather Stations






























Interactive Weather Map
Tropical Storm Tracking
New forecast layout! Learn more

10-Day Weather Forecast

Advertisements
Track Severe Weather on mobile